Tiempo atmosférico en la estación meteorológica de Cazalla De La Sierra, Sevilla (550 m.)



Fecha
DESCASC
Temp. máxima en grados centígrados (hora)
DESCASC
Temp. mínima en grados centígrados (hora)
DESCASC
Temp. media en grados centígrados
DESCASC
Racha de viento máxima en m/sg (hora)
DESCASC
Velocidad máxima media en intervalos de 10 minutos(hora)
DESCASC
Precipitaciones diarias en mm
DESCASC
Precipitaciones de 00:00 a 06:00 en mm
DESCASC
Precipitaciones de 06:00 a 12:00 en mm
DESCASC
Precipitaciones de 12:00 a 18:00 en mm
DESCASC
Precipitaciones de 18:00 a 24:00 en mm
DESCASC
19-09-2019 28.4 (16:20) 13 (07:20) 20.7 5.83 (13:00) 2.5 (17:30) 0 0 0 0 0
18-09-2019 28.1 (17:30) 14.2 (08:30) 21.2 6.11 (14:30) 2.78 (12:30) 0 0 0 0 0
17-09-2019 28.9 (16:20) 15.5 (00:00) 22.2 6.39 (16:10) 2.5 (12:10) 0 0 0 0 0
16-09-2019 29.2 (17:00) 14.5 (00:00) 21.9 6.11 (14:40) 2.5 (13:00) 0 0 0 0 0
15-09-2019 28.3 (16:10) 14.9 (00:00) 21.6 6.39 (17:50) 3.61 (15:50) 0 0 0 0 0
14-09-2019 24.6 (15:10) 15.2 (00:00) 19.9 6.94 (15:30) 4.17 (15:50) 0 0 0 0 0
13-09-2019 26.1 (17:50) 15.9 (00:00) 21 11.11 (00:40) 5.83 (10:40) 7.8 0 0 0 7.8
12-09-2019 27.6 (15:40) 15.3 (00:00) 21.5 11.67 (11:20) 5.83 (11:40) 0 0 0 0 0
11-09-2019 27.4 (18:10) 14.7 (00:00) 21 11.11 (10:50) 6.11 (11:00) 0 0 0 0 0
10-09-2019 24.8 (18:00) 12.3 (07:20) 18.5 10.56 (15:10) 5.28 (13:40) 0 0 0 0 0
09-09-2019 31.4 (16:50) 13.8 (08:20) 22.6 9.72 (19:20) 5.56 (18:30) 0 0 0 0 0
08-09-2019 30.4 (16:40) 16.3 (00:00) 23.3 6.67 (15:20) 4.17 (02:30) 0 0 0 0 0
07-09-2019 31.4 (16:40) 16.3 (00:00) 23.8 9.72 (18:20) 4.17 (18:40) 0 0 0 0 0
06-09-2019 32.4 (15:50) 16.2 (00:00) 24.3 14.44 (16:10) 7.22 (16:10) 10.2 0 0 10.2 0
05-09-2019 34.3 (14:20) 15.8 (00:00) 25 8.06 (17:10) 3.06 (19:50) 0 0 0 0 0
04-09-2019 35.5 (15:30) 18.3 (00:00) 26.9 7.78 (16:20) 3.61 (11:00) 0.6 0 0 0.6 0
03-09-2019 34.9 (17:20) 17.1 (00:00) 26 6.94 (16:20) 3.33 (19:20) 0 0 0 0 0
02-09-2019 34.5 (16:30) 17.6 (00:00) 26.1 7.5 (15:10) 2.78 (17:40) 0 0 0 0 0
01-09-2019 34.2 (17:10) 17.6 (00:00) 25.9 7.5 (17:30) 3.06 (15:40) 0 0 0 0 0
31-08-2019 34.5 (16:20) 17.2 (00:00) 25.9 7.5 (17:50) 3.06 (02:10) 0 0 0 0 0
30-08-2019 34.6 (18:00) 17 (00:00) 25.8 6.11 (13:40) 2.5 (18:30) 0 0 0 0 0
29-08-2019 34 (17:30) 19.5 (00:00) 26.8 8.06 (14:40) 3.33 (14:20) 0 0 0 0 0
28-08-2019 33.7 (17:40) 15.5 (00:00) 24.6 7.22 (16:50) 3.33 (16:40) 0 0 0 0 0
27-08-2019 30.9 (17:00) 13.4 (00:00) 22.1 7.78 (13:40) 3.06 (16:20) 0 0 0 0 0
26-08-2019 28.7 (15:30) 15.6 (00:00) 22.2 10.28 (18:00) 6.11 (18:00) 0 0 0 0 0
25-08-2019 32.3 (17:50) 16.3 (00:00) 24.3 8.33 (17:00) 3.33 (23:40) 0 0 0 0 0
24-08-2019 34.4 (17:00) 17.6 (00:00) 26 6.39 (12:50) 2.78 (11:40) 0 0 0 0 0
23-08-2019 33.7 (18:20) 19.5 (00:00) 26.6 8.06 (12:20) 3.33 (10:20) 0 0 0 0 0
22-08-2019 33.7 (17:00) 18.7 (00:00) 26.2 7.5 (16:30) 3.33 (16:30) 0 0 0 0 0
21-08-2019 32.6 (15:50) 15.8 (00:00) 24.2 5.83 (13:10) 2.78 (18:40) 0 0 0 0 0

Gráficas

Temp. máximas Temp. mínimas Temp. medias Precipitaciones Rachas de viento máximas Velocidades máximas media en intervalos de 10 minutos

Datos horarios

Fecha y hora oficial Temperatura (ºC) Velocidad del viento (km/h) Dirección del viento Racha (km/h) Dirección de racha Precipitación (mm) Presión (hPa) Tendencia (hPa) Humedad (%)
2019-09-19 23:00:00 17.3 3 Este 5 Este 0 952.5 0.9 53
2019-09-19 22:00:00 19.7 0 Calma 9 Sur 0 952.2 0.8 40
2019-09-19 21:00:00 22.6 4 Sur 10 Sur 0 952 0.4 30
2019-09-19 20:00:00 24.6 4 Sur 13 Oeste 0 951.6 -0.2 25
2019-09-19 19:00:00 25.7 6 Oeste 17 Sudoeste 0 951.4 -0.6 22
2019-09-19 18:00:00 27 6 Sudoeste 19 Noroeste 0 951.6 -1.1 22
2019-09-19 17:00:00 27.4 8 Sudoeste 20 Sudoeste 0 951.8 -1.4 22
2019-09-19 16:00:00 28 6 Sur 19 Sudoeste 0 952 -1.6 22
2019-09-19 15:00:00 26.7 6 Sudoeste 19 Sur 0 952.7 -0.8 25
2019-09-19 14:00:00 26.9 5 Sur 17 Sur 0 953.2 -0.4 28
2019-09-19 13:00:00 25.6 7 Sur 21 Sur 0 953.6 0.3 32
2019-09-19 12:00:00 24.4 5 Sudeste 13 Sur 0 953.5 0.4 37
2019-09-19 11:00:00 22.4 5 Sur 9 Sur 0 953.6 0.7 41
2019-09-19 10:00:00 19.5 4 Este 6 Este 0 953.3 0.6 54
2019-09-19 09:00:00 14.3 3 Sudeste 6 Este 0 953.1 0.5 77
2019-09-19 08:00:00 13.3 3 Este 8 Este 0 952.9 0.2 77
2019-09-19 07:00:00 13.4 5 Este 7 Este 0 952.7 -0.2 77
2019-09-19 06:00:00 13.3 4 Este 6 Este 0 952.6 -0.6 77
2019-09-19 05:00:00 13.8 3 Sudeste 6 Sudeste 0 952.7 -0.8 76
2019-09-19 04:00:00 14.1 4 Este 5 Este 0 952.9 -0.5 75
2019-09-19 03:00:00 14.4 3 Sudeste 5 Este 0 953.2 -0.1 75
2019-09-19 02:00:00 14.8 3 Este 11 Este 0 953.5 0.2 73
2019-09-19 01:00:00 15.7 2 Sudeste 6 Este 0 953.4 0.4 69
2019-09-19 00:00:00 16.6 0 Calma 3 Sudeste 0 953.3 0.6 66
2019-09-18 23:00:00 18.3 0 Calma 6 Sur 0 953.3 0.9 52
2019-09-18 22:00:00 21.6 4 Sudoeste 12 Oeste 0 953 1 42
2019-09-18 21:00:00 22.9 5 Sur 13 Sur 0 952.7 0.7 40
2019-09-18 20:00:00 24.6 5 Sudoeste 15 Sudoeste 0 952.4 0.3 32
2019-09-18 19:00:00 27 4 Sudoeste 18 Noroeste 0 952 -0.4 27
2019-09-18 18:00:00 26.4 6 Sudoeste 22 Sudoeste 0 952 -1 26
2019-09-18 17:00:00 26.9 5 Oeste 19 Sudoeste 0 952.1 -1.4 28
2019-09-18 16:00:00 27.1 8 Sudoeste 18 Oeste 0 952.4 -1.2 31
2019-09-18 15:00:00 27.4 8 Sur 22 Oeste 0 953 -0.5 33
2019-09-18 14:00:00 26.1 5 Sur 17 Sudoeste 0 953.5 -0.1 37
2019-09-18 13:00:00 24.5 3 Sur 19 Sudoeste 0 953.6 0.3 42
2019-09-18 12:00:00 22.7 8 Sudoeste 19 Oeste 0 953.5 0.8 46
2019-09-18 11:00:00 20.7 6 Sudoeste 13 Sudoeste 0 953.6 1.4 51
2019-09-18 10:00:00 19.3 4 Sudeste 9 Sudeste 0 953.3 1.5 53
2019-09-18 09:00:00 15.2 0 Calma -- -- 0 952.7 1 80
2019-09-18 08:00:00 14.6 0 Calma 5 Este 0 952.2 0.3 80
2019-09-18 07:00:00 15.3 3 Sudeste 6 Este 0 951.8 -0.3 79
2019-09-18 06:00:00 15.8 3 Sudeste 7 Este 0 951.7 -0.6 79
2019-09-18 05:00:00 15.5 2 Este 6 Este 0 951.9 -0.6 80
2019-09-18 04:00:00 15.9 3 Este 4 Este 0 952.1 -0.4 80
2019-09-18 03:00:00 16.3 0 Calma 4 Este 0 952.3 -0.1 77
2019-09-18 02:00:00 16.6 2 Este 5 Este 0 952.5 0.4 74
2019-09-18 01:00:00 17.8 3 Este 6 Este 0 952.5 0.9 70
2019-09-18 00:00:00 18.6 0 Calma 10 Noroeste 0 952.4 1.3 62
2019-09-17 23:00:00 20.6 3 Oeste 14 Sudoeste 0 952.1 1.1 54
2019-09-17 22:00:00 20.7 6 Sur 10 Sur 0 951.6 0.7 51
2019-09-17 21:00:00 22.9 3 Sudeste 14 Sudoeste 0 951.1 0.1 40
2019-09-15 18:00:00 26.6 8 Sudoeste 23 Sudoeste 0 953.6 -0.8 36
2019-09-15 17:00:00 26 5 Oeste 20 Oeste 0 953.6 -1.2 34
2019-09-15 16:00:00 27.4 6 Oeste 21 Oeste 0 954.2 -1.3 33
2019-09-15 15:00:00 27.1 3 Oeste 16 Oeste 0 954.4 -1 36
2019-09-15 14:00:00 25.4 4 Sudoeste 16 Sudoeste 0 954.8 -0.5 37
2019-09-15 13:00:00 23.4 9 Oeste 14 Oeste 0 955.5 0.4 42
2019-09-15 12:00:00 22.7 6 Oeste 15 Oeste 0 955.4 0.7 45
2019-09-15 11:00:00 22 3 Sudoeste 9 Sudoeste 0 955.3 0.5 47
2019-09-15 10:00:00 20.4 0 Calma 6 Este 0 955.1 0.3 60
2019-09-15 09:00:00 16.8 0 Calma 7 Este 0 954.7 0.2 78
2019-09-15 08:00:00 15.1 3 Este 6 Este 0 954.8 0.3 83
2019-09-15 07:00:00 15.4 0 Calma 5 Este 0 954.8 0 82
2019-09-15 06:00:00 15.8 3 Este 7 Este 0 954.5 -0.6 80
2019-09-15 05:00:00 16 3 Sudeste 6 Este 0 954.5 -0.7 80
2019-09-15 04:00:00 16.2 3 Sudeste 6 Este 0 954.8 -0.7 79
2019-09-15 03:00:00 16.1 3 Este 5 Este 0 955.1 -0.4 80
2019-09-15 02:00:00 16.6 3 Sudeste 5 Este 0 955.2 -0.4 78
2019-09-15 01:00:00 17.3 2 Sudeste 3 Este 0 955.5 0.6 77
2019-09-15 00:00:00 17.3 3 Sudeste 5 Este 0 955.5 0.9 74
2019-09-14 23:00:00 18.4 0 Calma 5 Oeste 0 955.6 1.3 66
2019-09-14 22:00:00 19.7 4 Este 6 Este 0 954.9 0.7 58
2019-09-14 21:00:00 21.1 4 Sudeste 8 Nordeste 0 954.6 0.4 51
2019-09-14 20:00:00 22.3 4 Este 11 Este 0 954.3 -0.2 47
2019-09-14 19:00:00 22.3 6 Este 16 Este 0 954.2 -0.4 47
2019-09-14 18:00:00 22.4 8 Este 23 Sudeste 0 954.2 -0.8 49
2019-09-14 17:00:00 21.2 13 Este 25 Este 0 954.5 -0.9 53
2019-09-14 16:00:00 21.2 14 Este 25 Este 0 954.6 -1.1 50
2019-09-14 15:00:00 23.7 8 Este 23 Este 0 955 -1.3 41
2019-09-14 14:00:00 23.6 8 Este 22 Este 0 955.4 -0.9 39
2019-09-14 13:00:00 22.8 10 Este 22 Este 0 955.7 -0.3 44
2019-09-14 12:00:00 21.4 8 Este 18 Este 0 956.3 0.6 54
2019-09-14 11:00:00 19.4 9 Este 22 Este 0 956.3 1.1 65
2019-09-14 10:00:00 19.2 6 Este 17 Este 0 956 1.1 63
2019-09-14 09:00:00 16 0 Calma 13 Este 0 955.7 1 77
2019-09-14 08:00:00 16.6 7 Este 11 Este 0 955.2 0.5 72
2019-09-14 07:00:00 17 4 Sudeste 12 Este 0 954.9 -0.6 72
2019-09-14 06:00:00 15.7 2 Sudeste 15 Este 0 954.7 -1.3 76
2019-09-14 05:00:00 16.3 7 Este 16 Este 0 954.7 -1.7 73
2019-09-14 04:00:00 16.2 5 Sudeste 13 Norte 0 955.5 -1.4 73
2019-09-14 03:00:00 15.8 4 Este 10 Este 0 956 -1.1 75
2019-09-14 02:00:00 15.7 2 Sudeste 9 Sudeste 0 956.4 -0.5 75
2019-09-14 01:00:00 16.1 6 Sudeste 16 Este 0 956.9 0.3 75
2019-09-14 00:00:00 16.3 5 Sudeste 11 Este 0 957.1 -0.2 74
2019-09-13 23:00:00 16.1 2 Sudeste 20 Nordeste 0.1 956.9 0.9 77
2019-09-13 22:00:00 16 6 Norte 18 Norte 3.6 956.6 1.3 77
2019-09-13 21:00:00 17 5 Noroeste 16 Sudeste 0.5 957.3 2.9 77
2019-09-13 20:00:00 19.8 8 Norte 28 Nordeste 0.1 956 1.4 60
2019-09-13 19:00:00 18.8 2 Oeste 31 Sur 3.5 955.3 0 62
2019-09-13 18:00:00 25 9 Este 22 Este 0 954.4 -1.7 36
2019-09-13 17:00:00 24.4 11 Nordeste 26 Este 0 954.6 -1.9 39
2019-09-13 16:00:00 23.5 15 Nordeste 28 Este 0 955.3 -1.6 44
2019-09-13 15:00:00 19.9 15 Nordeste 28 Este 0 956.1 -1.1 53
2019-09-13 14:00:00 20.8 14 Nordeste 33 Este 0 956.5 0 51
2019-09-13 13:00:00 21.9 13 Nordeste 31 Nordeste 0 956.9 0.9 49
2019-09-13 12:00:00 20.8 18 Este 31 Este 0 957.2 0.7 49
2019-09-13 11:00:00 19 15 Nordeste 37 Nordeste 0 956.5 0.3 56
2019-09-13 10:00:00 18.7 15 Este 27 Este 0 956 -0.1 54
2019-09-13 09:00:00 18.1 9 Este 22 Este 0 956.5 0.7 57
2019-09-13 08:00:00 18.2 9 Este 22 Este 0 956.2 0.1 58
2019-09-13 07:00:00 18.3 14 Este 26 Este 0 956.1 -1.1 58
2019-09-13 06:00:00 18.3 9 Este 24 Nordeste 0 955.8 -1.9 56
2019-09-13 05:00:00 18.6 11 Este 21 Este 0 956.1 -1.5 54
2019-09-13 04:00:00 18.7 11 Este 21 Este 0 957.2 -1.4 54
2019-09-13 03:00:00 18.6 7 Este 27 Este 0 957.7 -1.3 56
2019-09-13 02:00:00 19.1 14 Nordeste 30 Este 0 957.6 -1.1 54
2019-09-13 01:00:00 19.8 15 Este 40 Este 0 958.6 -0.2 52
2019-09-13 00:00:00 21.1 15 Este 32 Este 0 959 0.8 49
2019-09-12 23:00:00 21.2 10 Este 22 Nordeste 0 958.7 1 47
2019-09-12 22:00:00 21.6 10 Este 21 Nordeste 0 958.8 0.9 43
2019-09-12 21:00:00 22.5 10 Nordeste 23 Nordeste 0 958.2 0.5 40
2019-09-12 20:00:00 23.9 13 Este 35 Este 0 957.7 0.4 36
2019-09-12 19:00:00 24.8 16 Nordeste 33 Nordeste 0 957.9 0.4 34
2019-09-12 18:00:00 25.9 15 Este 33 Este 0 957.7 0 32
2019-09-12 17:00:00 26.8 12 Este 35 Este 0 957.3 -0.7 31
2019-09-12 16:00:00 26.3 14 Este 33 Este 0 957.5 -0.6 33
2019-09-12 15:00:00 26.5 14 Este 37 Sudeste 0 957.7 -0.9 32
2019-09-12 14:00:00 26.4 15 Este 40 Este 0 958 -0.1 32
2019-09-12 13:00:00 25.4 18 Este 41 Este 0 958.1 0.1 34
2019-09-12 12:00:00 23.8 14 Nordeste 42 Este 0 958.6 1.3 40
2019-09-12 11:00:00 22 16 Este 35 Nordeste 0 958.1 0.9 43
2019-09-12 10:00:00 19.3 17 Nordeste 36 Nordeste 0 958 0.4 47
2019-09-12 09:00:00 16.5 4 Norte 11 Norte 0 957.3 -0.2 53
2019-09-12 08:00:00 16 3 Nordeste 12 Este 0 957.2 -0.5 50
2019-09-12 07:00:00 16.5 5 Este 17 Nordeste 0 957.6 -0.1 45
2019-09-12 06:00:00 16.6 10 Nordeste 19 Nordeste 0 957.5 -0.1 40
2019-09-12 05:00:00 17.1 11 Nordeste 24 Nordeste 0 957.7 0.2 38
2019-09-12 04:00:00 18 10 Este 24 Nordeste 0 957.7 0.4 36
2019-09-12 03:00:00 18.8 9 Nordeste 28 Este 0 957.6 0.7 36
2019-09-12 02:00:00 20 12 Este 42 Este 0 957.5 0.4 35
2019-09-12 01:00:00 21 14 Este 35 Este 0 957.3 1.1 35
2019-09-12 00:00:00 21.9 13 Este 27 Este 0 956.9 1.6 32
2019-09-11 23:00:00 23.2 17 Este 33 Nordeste 0 957.1 2.5 30
2019-09-11 22:00:00 24.3 12 Este 26 Este 0 956.2 1.8 27
2019-09-11 21:00:00 24.8 8 Este 22 Este 0 955.3 1 27
2019-09-11 20:00:00 25.4 13 Este 26 Este 0 954.6 0 26
2019-09-11 19:00:00 25.6 13 Nordeste 32 Nordeste 0 954.4 -0.4 26
2019-09-11 18:00:00 27.3 13 Este 33 Este 0 954.3 -1 24
2019-09-11 17:00:00 26.9 13 Nordeste 36 Nordeste 0 954.6 -1.3 26
2019-09-11 16:00:00 26.3 10 Nordeste 37 Nordeste 0 954.8 -1.6 27
2019-09-11 15:00:00 25.1 13 Nordeste 30 Este 0 955.3 -1.1 28
2019-09-11 14:00:00 22.8 15 Este 35 Este 0 955.9 0 31
2019-09-11 13:00:00 21.9 15 Este 35 Nordeste 0 956.4 0.6 32
2019-09-11 12:00:00 20.5 19 Este 36 Este 0 956.4 1.2 35
2019-09-11 11:00:00 19.3 22 Este 40 Nordeste 0 955.9 1.1 37
2019-09-11 10:00:00 17.9 14 Nordeste 30 Nordeste 0 955.8 1.3 40
2019-09-11 09:00:00 16.2 13 Nordeste 28 Nordeste 0 955.2 0.8 42
2019-09-11 08:00:00 14.9 14 Este 28 Este 0 954.8 0.6 43
2019-09-11 07:00:00 14.9 9 Este 19 Nordeste 0 954.5 0.1 42
2019-09-11 06:00:00 15.3 5 Este 14 Nordeste 0 954.4 0 38
2019-09-11 05:00:00 15.8 4 Norte 16 Nordeste 0 954.2 0 35
2019-09-11 04:00:00 16.8 5 Nordeste 20 Nordeste 0 954.4 0.4 31
2019-09-11 03:00:00 17.6 5 Nordeste 15 Nordeste 0 954.4 0.2 30
2019-09-11 02:00:00 18.1 7 Nordeste 17 Norte 0 954.2 0.4 29
2019-09-11 01:00:00 18.3 5 Nordeste 15 Noroeste 0 954 1 29
2019-09-11 00:00:00 19 3 Norte 17 Noroeste 0 954.2 1.8 27
2019-09-10 23:00:00 17.4 0 Calma 9 Oeste 0 953.8 2 28
2019-09-10 22:00:00 18.7 6 Noroeste 17 Noroeste 0 953 1.4 25
2019-09-10 21:00:00 20.8 5 Norte 24 Norte 0 952.4 0.9 25
2019-09-10 20:00:00 23.3 11 Norte 26 Noroeste 0 951.8 0 22
2019-09-10 19:00:00 23.9 13 Noroeste 32 Norte 0 951.6 -0.5 22
2019-09-10 18:00:00 24.2 9 Norte 34 Noroeste 0 951.5 -0.6 23
2019-09-10 17:00:00 24.5 14 Norte 35 Noroeste 0 951.8 -0.6 23
2019-09-10 16:00:00 23.8 15 Noroeste 38 Noroeste 0 952.1 -0.5 25
2019-09-10 15:00:00 22.7 14 Noroeste 36 Noroeste 0 952.1 -0.6 28
2019-09-10 14:00:00 21.7 13 Norte 37 Nordeste 0 952.4 -0.3 34
2019-09-10 13:00:00 20.8 13 Norte 37 Noroeste 0 952.6 0.2 39
2019-09-10 12:00:00 19.7 13 Norte 36 Noroeste 0 952.7 0.6 47
2019-09-10 11:00:00 18.2 11 Norte 25 Noroeste 0 952.7 1.4 53
2019-09-10 10:00:00 14.8 11 Noroeste 23 Noroeste 0 952.4 1 65
2019-09-10 09:00:00 13.7 14 Noroeste 34 Noroeste 0 952.1 0.6 68
2019-09-10 08:00:00 12.9 13 Noroeste 22 Noroeste 0 951.3 -0.7 68
2019-09-10 07:00:00 13 0 Calma 14 Oeste 0 951.4 -0.8 64
2019-09-10 06:00:00 13.6 6 Noroeste 20 Noroeste 0 951.5 -1.3 57
2019-09-10 05:00:00 14.9 12 Noroeste 25 Noroeste 0 952 -0.9 47
2019-09-10 04:00:00 15.8 8 Noroeste 21 Norte 0 952.2 -1.2 41
2019-09-10 03:00:00 17.1 7 Noroeste 21 Noroeste 0 952.8 -0.5 36
2019-09-10 02:00:00 16.9 4 Oeste 12 Oeste 0 952.9 -0.6 42
2019-09-10 01:00:00 19.4 7 Oeste 23 Oeste 0 953.4 0.3 34
2019-09-10 00:00:00 22.2 13 Oeste 26 Oeste 0 953.3 0.6 32
2019-09-09 23:00:00 23.2 13 Oeste 22 Oeste 0 953.5 1.1 31
2019-09-09 22:00:00 23 6 Oeste 19 Oeste 0 953.1 0.9 30
2019-09-09 21:00:00 24.8 9 Noroeste 26 Oeste 0 952.7 0.5 26
2019-09-09 20:00:00 26.9 14 Oeste 35 Oeste 0 952.4 0 23
2019-09-09 19:00:00 28.4 17 Oeste 34 Oeste 0 952.2 -0.8 22
2019-09-09 18:00:00 29.1 16 Noroeste 30 Oeste 0 952.2 -1.6 21
2019-09-09 17:00:00 30.7 16 Oeste 32 Oeste 0 952.4 -1.9 19
2019-09-09 16:00:00 29.6 8 Noroeste 27 Oeste 0 953 -2 25
2019-09-09 15:00:00 28.5 10 Noroeste 27 Oeste 0 953.8 -1.4 25
2019-09-09 14:00:00 27.6 8 Noroeste 32 Oeste 0 954.3 -0.7 25
2019-09-09 13:00:00 28.3 10 Oeste 24 Oeste 0 955 0.2 26
2019-09-09 12:00:00 25.9 6 Sudoeste 13 Sudoeste 0 955.2 0.6 33
2019-09-09 11:00:00 22.9 3 Oeste 7 Sudoeste 0 955 0.7 42
2019-09-09 10:00:00 20.1 0 Calma 4 Nordeste 0 954.8 1.1 56
2019-09-09 09:00:00 15.8 3 Este 5 Este 0 954.6 0.8 74
2019-09-09 08:00:00 14.2 3 Este 10 Norte 0 954.3 0.5 77
2019-09-09 07:00:00 16.4 3 Nordeste 10 Norte 0 953.7 -0.2 72
2019-09-09 06:00:00 16.8 2 Sudeste 16 Norte 0 953.8 -0.5 68
2019-09-09 05:00:00 18.6 7 Noroeste 13 Norte 0 953.8 -0.7 63
2019-09-09 04:00:00 18.5 5 Norte 13 Nordeste 0 953.9 -0.9 68
2019-09-09 03:00:00 16.9 0 Calma 5 Sudeste 0 954.3 -0.6 75
2019-09-09 02:00:00 17.6 3 Oeste 9 Oeste 0 954.5 -0.7 70
2019-09-09 01:00:00 17.8 3 Noroeste 6 Oeste 0 954.8 0.2 67
2019-09-09 00:00:00 18.8 0 Calma 10 Sur 0 954.9 1.1 62
2019-09-08 23:00:00 20.6 5 Sur 20 Sudeste 0 955.2 2.5 52
2019-09-08 22:00:00 22.4 8 Sur 18 Sur 0 954.6 1.6 46
2019-09-08 21:00:00 23.1 3 Sudeste 9 Oeste 0 953.8 1.4 43
2019-09-08 20:00:00 24.5 4 Sur 15 Sur 0 952.7 0.8 38
2019-09-08 19:00:00 25.6 5 Sur 15 Sur 0 953 0.7 35
2019-09-08 18:00:00 26.5 8 Sudeste 21 Sudeste 0 952.4 -0.5 34
2019-09-08 17:00:00 29.2 6 Sudoeste 22 Norte 0 951.9 -1.3 26
2019-09-08 16:00:00 29.3 9 Oeste 24 Noroeste 0 952.3 -0.8 29
2019-09-08 15:00:00 28.4 9 Noroeste 21 Noroeste 0 952.9 -0.6 31
2019-09-08 14:00:00 26.6 10 Noroeste 19 Noroeste 0 953.2 -0.2 32
2019-09-08 13:00:00 26.8 0 Calma 18 Norte 0 953.1 0 33
2019-09-08 12:00:00 24.2 6 Norte 17 Noroeste 0 953.5 0.3 39
2019-09-08 11:00:00 22.6 4 Norte 11 Norte 0 953.4 0.3 49
2019-09-08 10:00:00 20 0 Calma 7 Este 0 953.1 0.3 69
2019-09-08 09:00:00 17.3 0 Calma 4 Sudeste 0 953.2 0.8 80
2019-09-08 08:00:00 16.5 0 Calma 5 Este 0 953.1 0.5 80
2019-09-08 07:00:00 16.8 2 Este 7 Este 0 952.8 0.1 79
2019-09-08 06:00:00 17.2 3 Este 5 Este 0 952.4 -0.7 79
2019-09-08 05:00:00 18.3 3 Oeste 9 Oeste 0 952.6 -0.2 73
2019-09-08 04:00:00 19.4 7 Oeste 22 Oeste 0 952.7 -0.1 69
2019-09-08 03:00:00 20.2 13 Oeste 23 Oeste 0 953.1 0.6 62
2019-09-08 02:00:00 21.1 14 Oeste 23 Oeste 0 952.8 0.4 57
2019-09-08 01:00:00 21.9 6 Sudoeste 22 Sudoeste 0 952.8 1 54
2019-09-08 00:00:00 20.3 3 Este 13 Noroeste 0 952.5 1.3 53
2019-09-07 23:00:00 20.7 3 Oeste 11 Sudoeste 0 952.4 1.4 48
2019-09-07 22:00:00 23 5 Este 11 Este 0 951.8 0.1 42
2019-09-07 21:00:00 23.8 4 Este 12 Oeste 0 951.2 0.3 42
2019-09-07 20:00:00 25 5 Este 14 Norte 0 951 -0.2 37
2019-09-07 19:00:00 24.1 9 Norte 35 Noroeste 0 951.7 -0.2 38
2019-09-07 18:00:00 30.6 6 Sudeste 22 Sur 0 950.9 -1.9 26
2019-09-07 17:00:00 29.6 7 Este 21 Este 0 951.2 -1.8 28
2019-09-07 16:00:00 30.5 8 Sudeste 33 Sur 0 951.9 -1.3 29
2019-09-07 15:00:00 30.4 5 Sur 19 Sur 0 952.8 -0.5 31
2019-09-07 14:00:00 29 8 Sudeste 19 Sudeste 0 953 -0.5 32
2019-09-07 13:00:00 28.2 6 Sur 19 Sur 0 953.2 0 34
2019-09-07 12:00:00 25.8 7 Sur 15 Sur 0 953.3 0.1 43
2019-09-07 11:00:00 25.2 0 Calma 5 Noroeste 0 953.5 0.8 44
2019-09-07 10:00:00 22.7 0 Calma 5 Este 0 953.2 1 56
2019-09-07 09:00:00 18 3 Este 6 Este 0 953.2 1.1 73
2019-09-07 08:00:00 16.5 4 Este 7 Sudeste 0 952.7 0.4 75
2019-09-07 07:00:00 17.1 4 Sudeste 10 Este 0 952.2 -0.2 70
2019-09-07 06:00:00 16.6 4 Sudeste 6 Este 0 952.1 -0.5 73
2019-09-07 05:00:00 17.2 4 Sudeste 6 Este 0 952.3 -0.1 70
2019-09-07 04:00:00 17.7 0 Calma 8 Este 0 952.4 0.1 75
2019-09-07 03:00:00 18.6 4 Este 9 Este 0 952.6 0.3 74
2019-09-07 02:00:00 18.3 4 Este 6 Este 0 952.4 0.1 75
2019-09-07 01:00:00 19.3 5 Este 7 Este 0 952.3 0.4 72
2019-09-07 00:00:00 19.4 4 Este 7 Este 0 952.3 0.9 73
2019-09-06 23:00:00 20 5 Este 7 Este 0 952.3 0.9 73
2019-09-06 22:00:00 20.2 0 Calma 5 Sudeste 0 951.9 0.3 74
2019-09-06 21:00:00 21.6 3 Sudeste 6 Este 0 951.4 0.2 67
2019-09-06 20:00:00 23.4 3 Este 10 Sur 0 951.4 -0.4 65
2019-09-06 19:00:00 23.7 2 Oeste 6 Oeste 0 951.6 -0.8 67
2019-09-06 18:00:00 22.6 0 Calma 6 Oeste 0 951.2 -1.7 73
2019-09-06 17:00:00 21.7 4 Este 52 Norte 10.2 951.8 -1.6 69
2019-09-06 16:00:00 29.7 4 Este 23 Este 0 952.4 -1.2 32
2019-09-06 15:00:00 30 4 Noroeste 18 Sur 0 952.9 -1.2 32
2019-09-06 14:00:00 29.9 5 Sur 21 Sur 0 953.4 -0.5 34
2019-09-06 13:00:00 28.6 6 Sur 18 Sudoeste 0 953.6 0.1 36
2019-09-06 12:00:00 27.4 6 Este 18 Sur 0 954.1 0.6 36
2019-09-06 11:00:00 25.6 6 Sudeste 17 Este 0 953.9 0.8 41
2019-09-06 10:00:00 23.2 5 Sudeste 14 Sudeste 0 953.5 0.7 58
2019-09-06 09:00:00 19.5 2 Sudeste 5 Este 0 953.5 0.5 74
2019-09-06 08:00:00 17.1 0 Calma 7 Este 0 953.1 0.2 80
2019-09-06 07:00:00 16.3 2 Este 4 Este 0 952.8 0.2 80
2019-09-06 06:00:00 17.3 2 Sudeste 5 Este 0 953 0.4 78
2019-09-06 05:00:00 19 3 Sudeste 7 Este 0 952.9 0 73
2019-09-06 04:00:00 19.4 4 Este 9 Sur 0 952.6 0.1 67
2019-09-06 03:00:00 20.5 3 Nordeste 6 Este 0 952.6 0.2 63
2019-09-06 02:00:00 19.2 3 Este 9 Este 0 952.9 0.5 63
2019-09-06 01:00:00 19.8 0 Calma -- -- 0 952.5 0.2 62
2019-09-06 00:00:00 20.8 0 Calma 4 Este 0 952.4 0.9 57
2019-09-05 23:00:00 22.4 3 Este 5 Este 0 952.4 1.2 53
2019-09-05 22:00:00 24.3 0 Calma 5 Oeste 0 952.3 1.1 46
2019-09-05 21:00:00 27.8 3 Sudoeste 18 Noroeste 0 951.5 0.6 38
2019-09-05 20:00:00 29.7 8 Oeste 22 Sudoeste 0 951.2 -0.1 36
2019-09-05 19:00:00 31.5 10 Sudoeste 29 Sudoeste 0 951.2 -0.6 30
2019-09-05 18:00:00 32.6 9 Sudoeste 29 Sudoeste 0 950.9 -1.3 28
2019-09-05 17:00:00 33.5 5 Sur 17 Sur 0 951.3 -1.2 27
2019-09-05 16:00:00 34.2 7 Sudeste 27 Sur 0 951.8 -1 27
2019-09-05 15:00:00 32.7 8 Oeste 23 Sudeste 0 952.2 -1 27
2019-09-05 14:00:00 33.9 6 Sudoeste 18 Sudoeste 0 952.5 -0.3 26
2019-09-05 13:00:00 31.9 5 Sudoeste 17 Sudoeste 0 952.8 0.1 27
2019-09-05 12:00:00 30 5 Sur 13 Sur 0 953.2 0.6 29
2019-09-05 11:00:00 29.7 4 Este 10 Este 0 952.8 0.5 28
2019-09-05 10:00:00 25.7 0 Calma 4 Norte 0 952.7 0.8 40
2019-09-05 09:00:00 18.5 0 Calma 5 Este 0 952.6 0.6 56
2019-09-05 08:00:00 15.9 0 Calma 5 Sudeste 0 952.3 0.3 61
2019-09-05 07:00:00 16.4 4 Este 8 Este 0 951.9 -0.4 59
2019-09-05 06:00:00 16.4 4 Este 7 Este 0 952 -0.4 62
2019-09-05 05:00:00 17.5 4 Sudeste 6 Sudeste 0 952 -1.1 62
2019-09-05 04:00:00 17.3 3 Sudeste 5 Este 0 952.3 -0.9 65
2019-09-05 03:00:00 17.9 2 Sudeste 6 Este 0 952.4 -1.1 62
2019-09-05 02:00:00 18.9 4 Este 7 Este 0 953.1 -0.4 61
2019-09-05 01:00:00 19.2 0 Calma 5 Noroeste 0 953.2 -0.3 58
2019-09-05 00:00:00 20.5 0 Calma 6 Oeste 0 953.5 0.3 53
2019-09-04 23:00:00 21.3 0 Calma 4 Oeste 0 953.5 0.6 51
2019-09-04 22:00:00 22.5 0 Calma 4 Este 0 953.5 0.3 47
2019-09-04 21:00:00 25.2 0 Calma 9 Sudoeste 0 953.2 -0.1 39
2019-09-04 20:00:00 30.4 5 Sudoeste 21 Oeste 0 952.9 -0.8 31
2019-09-04 19:00:00 30.4 8 Oeste 26 Noroeste 0 953.2 -0.9 31
2019-09-04 18:00:00 29 8 Oeste 21 Noroeste 0 953.3 -0.9 33
2019-09-04 17:00:00 28.4 6 Sudoeste 28 Sur 0.1 953.7 -1.3 38
2019-09-04 16:00:00 28.2 9 Sudeste 26 Noroeste 0.5 954.1 -1.4 37
2019-09-04 15:00:00 34.4 9 Oeste 24 Sudoeste 0 954.2 -1.8 26
2019-09-04 14:00:00 33 5 Sudoeste 17 Oeste 0 955 -1.2 28
2019-09-04 13:00:00 31.3 5 Sudoeste 19 Oeste 0 955.5 -0.4 32
2019-09-04 12:00:00 29.9 10 Oeste 21 Oeste 0 956 0.4 36
2019-09-04 11:00:00 27.1 13 Oeste 23 Noroeste 0 956.2 1.1 42
2019-09-04 10:00:00 24.3 0 Calma 7 Sur 0 955.9 1 49
2019-09-04 09:00:00 20.2 3 Noroeste 5 Noroeste 0 955.6 0.9 54
2019-09-04 08:00:00 18.8 0 Calma 4 Sur 0 955.1 0.4 56
2019-09-04 07:00:00 18.7 0 Calma 5 Sur 0 954.9 -0.2 54
2019-09-04 06:00:00 19.5 5 Este 8 Este 0 954.7 -0.6 52
2019-09-04 05:00:00 19.8 5 Este 8 Este 0 954.7 -0.9 52
2019-09-04 04:00:00 19.4 5 Este 7 Este 0 955.1 -0.4 51
2019-09-04 03:00:00 19.9 4 Este 6 Este 0 955.3 -0.4 49
2019-09-04 02:00:00 20.1 4 Este 6 Este 0 955.6 -0.1 48
2019-09-04 01:00:00 21.4 3 Sudeste 6 Este 0 955.5 0.2 46
2019-09-04 00:00:00 22.6 4 Sudeste 8 Este 0 955.7 0.8 43
2019-09-03 23:00:00 22.8 0 Calma 12 Oeste 0 955.7 1 43
2019-09-03 22:00:00 23.8 3 Este 5 Este 0 955.3 0.8 40
2019-09-03 21:00:00 26.9 2 Este 10 Oeste 0 954.9 0.4 34
2019-09-03 20:00:00 29.7 3 Oeste 19 Noroeste 0 954.7 -0.1 29
2019-09-03 19:00:00 32.3 5 Noroeste 13 Este 0 954.5 -0.8 27
2019-09-03 18:00:00 32.8 3 Sur 18 Sudeste 0 954.5 -1.1 24
2019-09-03 17:00:00 34.7 5 Sudeste 25 Sur 0 954.8 -1.3 24
2019-09-03 16:00:00 33.1 8 Sudoeste 22 Sur 0 955.3 -1.3 26
2019-09-03 15:00:00 32.7 5 Sur 19 Sudoeste 0 955.6 -1.1 27
2019-09-03 14:00:00 33.2 5 Sudeste 19 Sur 0 956.1 -0.3 27
2019-09-03 13:00:00 32 6 Sur 17 Sur 0 956.6 0.4 29
2019-09-03 12:00:00 30.9 5 Este 10 Este 0 956.7 0.7 32
2019-09-03 11:00:00 28.9 4 Este 8 Este 0 956.4 0.9 37
2019-09-03 10:00:00 26.5 3 Este 5 Nordeste 0 956.2 1.2 44
2019-09-03 09:00:00 20.4 4 Sudeste 6 Este 0 956 1.3 58
2019-09-03 08:00:00 17.1 3 Sudeste 6 Este 0 955.5 0.8 64
2019-09-03 07:00:00 17.9 4 Sudeste 8 Este 0 955 0.1 62
2019-09-03 06:00:00 17.9 2 Sudeste 4 Sudeste 0 954.7 0.3 60
2019-09-03 05:00:00 19.1 3 Este 7 Este 0 954.7 0.2 54
2019-09-03 04:00:00 19.3 3 Este 9 Este 0 954.9 0.7 49
2019-09-03 03:00:00 19.5 5 Este 7 Este 0 954.4 0.6 51
2019-09-03 02:00:00 19.9 4 Sudeste 6 Sudeste 0 954.5 0.5 50
2019-09-03 01:00:00 21.1 2 Este 6 Nordeste 0 954.2 0.9 48
2019-09-03 00:00:00 21.9 3 Sudeste 6 Este 0 953.8 1.4 46
2019-09-02 23:00:00 24 3 Oeste 10 Oeste 0 954 2 42
2019-09-02 22:00:00 26.5 3 Oeste 14 Sudoeste 0 953.3 1.4 36
2019-09-02 21:00:00 29.5 4 Sur 14 Sur 0 952.4 0.5 28
2019-09-02 20:00:00 31.6 6 Sudoeste 22 Sudoeste 0 952 0.1 26
2019-09-02 19:00:00 32.4 8 Sudoeste 21 Sudoeste 0 951.9 -0.2 24
2019-09-02 18:00:00 32.9 7 Sudoeste 24 Sur 0 951.9 -0.6 24
2019-09-02 17:00:00 33.2 10 Oeste 25 Oeste 0 951.9 -0.8 24
2019-09-02 16:00:00 33.5 8 Sudoeste 27 Oeste 0 952.1 -0.8 24
2019-09-02 15:00:00 33.7 4 Sur 21 Sudeste 0 952.5 -0.3 27
2019-09-02 14:00:00 32.1 3 Sur 22 Sudoeste 0 952.7 -0.1 27
2019-09-02 13:00:00 31.3 4 Sur 18 Oeste 0 952.9 0.5 28
2019-09-02 12:00:00 30.6 4 Sur 11 Sudoeste 0 952.8 0.5 31
2019-09-02 11:00:00 28.7 5 Sur 12 Sudoeste 0 952.8 1.1 35
2019-09-02 10:00:00 26.4 0 Calma 4 Sudeste 0 952.4 1.4 46
2019-09-02 09:00:00 19.9 2 Sudeste 6 Sudeste 0 952.3 1.5 58
2019-09-02 08:00:00 18 3 Sudeste 6 Este 0 951.7 0.8 62
2019-09-02 07:00:00 18.3 4 Sudeste 7 Este 0 951 -0.1 61
2019-09-02 06:00:00 19.2 3 Sudeste 6 Sudeste 0 950.8 -0.5 58
2019-09-02 05:00:00 19.5 4 Este 6 Este 0 950.9 -0.4 57
2019-09-02 04:00:00 20.3 3 Sudeste 6 Este 0 951.1 0 56
2019-09-02 03:00:00 19.4 4 Este 5 Este 0 951.3 -0.1 57
2019-09-02 02:00:00 19.6 3 Sudeste 5 Este 0 951.3 0 56
2019-09-02 01:00:00 20.7 2 Sudeste 6 Este 0 951.1 0.4 52
2019-09-02 00:00:00 22.6 3 Este 4 Este 0 951.4 1.2 49
2019-09-01 23:00:00 23.8 0 Calma 5 Sudoeste 0 951.3 1.5 44
2019-09-01 22:00:00 26.3 4 Sudoeste 11 Oeste 0 950.7 1 38
2019-09-01 21:00:00 28.4 6 Oeste 19 Sudoeste 0 950.2 0.4 34
2019-09-01 20:00:00 31.4 7 Sudoeste 23 Oeste 0 949.8 -0.2 28
2019-09-01 19:00:00 32.4 8 Sudoeste 24 Oeste 0 949.7 -0.6 27
2019-09-01 18:00:00 33 7 Sudoeste 27 Oeste 0 949.8 -1.3 25
2019-09-01 17:00:00 33.3 9 Oeste 25 Oeste 0 950 -1.7 25
2019-09-01 16:00:00 32.9 11 Oeste 25 Sudoeste 0 950.3 -1.9 27
2019-09-01 15:00:00 32.7 7 Sudoeste 24 Oeste 0 951.1 -1.3 27
2019-09-01 14:00:00 32.4 8 Oeste 25 Oeste 0 951.7 -0.8 29
2019-09-01 13:00:00 31.7 5 Oeste 18 Sudoeste 0 952.2 -0.1 30
2019-09-01 12:00:00 29 6 Sudoeste 15 Sudoeste 0 952.4 0.3 33
2019-09-01 11:00:00 27.2 6 Sudoeste 12 Sudoeste 0 952.5 0.6 38
2019-09-01 10:00:00 25.1 7 Sudoeste 12 Oeste 0 952.3 0.8 44
2019-09-01 09:00:00 20.9 5 Este 6 Este 0 952.1 0.6 56
2019-09-01 08:00:00 17.8 4 Sudeste 6 Este 0 951.9 0.3 63
2019-09-01 07:00:00 18.5 5 Este 7 Este 0 951.5 -0.2 62
2019-09-01 06:00:00 18.4 3 Sudeste 5 Este 0 951.5 -0.4 60
2019-09-01 05:00:00 18.5 3 Este 5 Este 0 951.6 -0.7 59
2019-09-01 04:00:00 19.2 3 Sudeste 4 Este 0 951.7 -0.5 57
2019-09-01 03:00:00 20.4 3 Este 4 Este 0 951.9 -0.4 53
2019-09-01 02:00:00 21.2 0 Calma 3 Oeste 0 952.3 0 51
2019-09-01 01:00:00 22.7 0 Calma 8 Oeste 0 952.2 0.2 46
2019-09-01 00:00:00 25.3 6 Oeste 11 Sudoeste 0 952.3 0.9 41
2019-08-31 23:00:00 26.6 4 Oeste 9 Oeste 0 952.3 1.3 37
2019-08-31 22:00:00 28 4 Sudoeste 10 Sur 0 952 0.9 32
2019-08-31 21:00:00 29.7 5 Sudoeste 15 Sudoeste 0 951.4 0.5 28
2019-08-31 20:00:00 31.9 5 Noroeste 19 Noroeste 0 951 -0.3 26
2019-08-31 19:00:00 31.8 9 Noroeste 26 Sudoeste 0 951.1 -0.9 28
2019-08-31 18:00:00 34.3 4 Sudoeste 27 Oeste 0 950.9 -2 24
2019-08-31 17:00:00 33.9 8 Oeste 25 Oeste 0 951.3 -2.1 25
2019-08-31 16:00:00 33.7 4 Oeste 23 Oeste 0 952 -1.7 26
2019-08-31 15:00:00 33 8 Oeste 27 Oeste 0 952.9 -1.1 27
2019-08-31 14:00:00 32.2 10 Oeste 23 Oeste 0 953.4 -0.6 27
2019-08-31 13:00:00 30.9 6 Sur 17 Oeste 0 953.7 0.2 29
2019-08-31 12:00:00 29.3 6 Oeste 16 Sur 0 954 0.6 33
2019-08-31 11:00:00 28.9 3 Oeste 12 Sudoeste 0 954 1 34
2019-08-31 10:00:00 26.2 2 Sudoeste 7 Sudoeste 0 953.5 0.8 42
2019-08-31 09:00:00 20.3 3 Este 4 Este 0 953.4 0.4 58
2019-08-31 08:00:00 17.3 0 Calma 4 Este 0 953 -0.2 63
2019-08-31 07:00:00 18.1 3 Este 5 Este 0 952.7 -1.1 60
2019-08-31 06:00:00 18.6 2 Sudeste 6 Este 0 953 -1.2 56
2019-08-31 05:00:00 20.8 5 Este 7 Este 0 953.2 -1.2 48
2019-08-31 04:00:00 22.9 0 Calma 14 Sudeste 0 953.8 0.1 44
2019-08-31 03:00:00 24 6 Sudeste 21 Sudeste 0 954.2 0.2 43
2019-08-31 02:00:00 24.5 10 Este 18 Este 0 954.4 0.3 41
2019-08-31 01:00:00 21.4 4 Este 8 Este 0 953.7 -0.1 46
2019-08-31 00:00:00 22.5 3 Sudeste 5 Sudoeste 0 954 0.8 41
2019-08-30 23:00:00 24.1 0 Calma 5 Oeste 0 954.1 1.1 33
2019-08-30 22:00:00 27.6 2 Sudoeste 10 Sudoeste 0 953.8 0.5 26
2019-08-30 21:00:00 29.9 4 Sur 15 Sur 0 953.2 -0.2 23
2019-08-30 20:00:00 32 5 Sudoeste 19 Sudoeste 0 953 -0.9 22
2019-08-30 19:00:00 33.1 6 Sudoeste 20 Sudoeste 0 953.3 -1.4 23
2019-08-30 18:00:00 33.6 4 Sur 20 Oeste 0 953.4 -2 22
2019-08-30 17:00:00 33.1 7 Oeste 18 Este 0 953.9 -1.9 22
2019-08-30 16:00:00 33.7 4 Sur 20 Sur 0 954.7 -1.5 22
2019-08-30 15:00:00 33 6 Sudeste 20 Sur 0 955.4 -0.9 23
2019-08-30 14:00:00 32.5 5 Sur 22 Sur 0 955.8 -0.7 24
2019-08-30 13:00:00 31.6 8 Sur 20 Sur 0 956.2 -0.2 26
2019-08-30 12:00:00 30.4 6 Sur 15 Sur 0 956.3 -0.2 28
2019-08-30 11:00:00 28.8 4 Sudeste 13 Sur 0 956.5 0.3 31
2019-08-30 10:00:00 26.1 0 Calma 5 Sur 0 956.4 0.7 41
2019-08-30 09:00:00 21 2 Sudeste 9 Este 0 956.5 0.8 53
2019-08-30 08:00:00 17.6 5 Sudeste 8 Este 0 956.2 0.4 62
2019-08-30 07:00:00 17.5 4 Sudeste 6 Este 0 955.7 -0.1 61
2019-08-30 06:00:00 18.1 5 Este 7 Este 0 955.7 -0.2 59
2019-08-30 05:00:00 18.4 3 Sudeste 7 Este 0 955.8 -0.4 59
2019-08-30 04:00:00 17.8 3 Este 5 Este 0 955.8 -0.4 58
2019-08-30 03:00:00 19.4 0 Calma 9 Oeste 0 955.9 -0.2 52
2019-08-30 02:00:00 21.5 5 Oeste 12 Oeste 0 956.2 0.3 46
2019-08-30 01:00:00 22.4 3 Oeste 8 Oeste 0 956.2 1 45
2019-08-30 00:00:00 22.9 0 Calma 11 Oeste 0 956.1 1.3 41
2019-08-29 23:00:00 25.3 6 Oeste 10 Oeste 0 955.9 1.6 36
2019-08-29 22:00:00 26.2 4 Noroeste 10 Sudoeste 0 955.2 1 28
2019-08-29 21:00:00 29.3 3 Sur 14 Sudoeste 0 954.8 0.5 23
2019-08-29 20:00:00 31.3 5 Sudoeste 18 Sudoeste 0 954.3 -0.2 22
2019-08-29 19:00:00 32.7 6 Sudoeste 18 Sudoeste 0 954.2 -0.8 21
2019-08-29 18:00:00 32.6 8 Oeste 16 Sudoeste 0 954.3 -1.1 22
2019-08-29 17:00:00 32.7 6 Sur 21 Sudoeste 0 954.5 -0.9 22
2019-08-29 16:00:00 32.8 8 Sudeste 23 Sur 0 955 -0.6 22
2019-08-29 15:00:00 31.3 9 Sudeste 29 Sudeste 0 955.4 -0.3 23
2019-08-29 14:00:00 31.9 9 Sudeste 23 Sudeste 0 955.4 -0.1 24
2019-08-29 13:00:00 31.3 6 Sudeste 18 Este 0 955.6 0.6 26
2019-08-29 12:00:00 30 9 Sudeste 24 Sudeste 0 955.7 0.7 27
2019-08-29 11:00:00 28.3 8 Sudeste 20 Sudeste 0 955.5 1.2 30
2019-08-29 10:00:00 25.7 7 Este 12 Este 0 955 1.1 42
2019-08-29 09:00:00 20.7 4 Este 6 Este 0 955 0.9 54
2019-08-29 08:00:00 20.6 3 Sudeste 7 Sudeste 0 954.3 0 52
2019-08-29 07:00:00 20.9 5 Sudeste 7 Sudeste 0 953.9 0 53
2019-08-29 06:00:00 21.1 3 Sudeste 8 Este 0 954.1 0.6 52
2019-08-29 05:00:00 20.2 0 Calma 5 Este 0 954.3 0.6 52
2019-08-29 04:00:00 20.3 3 Este 6 Este 0 953.9 0.3 52
2019-08-29 03:00:00 20.2 4 Este 6 Este 0 953.5 0 51
2019-08-29 02:00:00 20.5 4 Este 7 Este 0 953.7 0.3 51
2019-08-29 01:00:00 21.2 4 Este 6 Este 0 953.6 0.7 48
2019-08-29 00:00:00 22.6 2 Sudeste 4 Este 0 953.5 1.1 44
2019-08-28 23:00:00 23.3 0 Calma 3 Este 0 953.4 1.4 40
2019-08-28 22:00:00 25.7 0 Calma 10 Sudoeste 0 952.9 0.9 33
2019-08-28 21:00:00 28.8 3 Sur 17 Sudoeste 0 952.4 0.3 28
2019-08-28 20:00:00 31.1 5 Sur 21 Sudoeste 0 952 -0.2 26
2019-08-28 19:00:00 32.4 6 Sudoeste 20 Sudoeste 0 952 -0.9 24
2019-08-28 18:00:00 32.5 9 Sudoeste 25 Sudoeste 0 952.1 -1 24
2019-08-28 17:00:00 32.1 10 Oeste 26 Oeste 0 952.2 -1.6 24
2019-08-28 16:00:00 32.1 5 Sudeste 25 Oeste 0 952.9 -1.3 26
2019-08-28 15:00:00 31.6 4 Este 14 Sudoeste 0 953.1 -1.4 26
2019-08-28 14:00:00 30.7 3 Oeste 15 Nordeste 0 953.8 -0.6 26
2019-08-28 13:00:00 28.7 3 Norte 17 Oeste 0 954.2 0.2 29
2019-08-28 12:00:00 28.8 4 Sur 12 Nordeste 0 954.5 0.6 29
2019-08-28 11:00:00 27.6 8 Este 15 Este 0 954.4 0.5 34
2019-08-28 10:00:00 25.3 4 Este 9 Sudeste 0 954 0.3 42
2019-08-28 09:00:00 20.3 4 Este 8 Este 0 953.9 0.5 59
2019-08-28 08:00:00 16.1 3 Este 9 Este 0 953.9 0.4 70
2019-08-28 07:00:00 16 4 Este 6 Este 0 953.7 0.2 70
2019-08-28 06:00:00 16.2 3 Este 7 Este 0 953.4 -0.4 69
2019-08-28 05:00:00 17.1 4 Este 6 Este 0 953.5 -0.3 69
2019-08-28 04:00:00 17.3 4 Este 6 Este 0 953.5 -0.6 73
2019-08-28 03:00:00 17.7 3 Este 7 Este 0 953.8 -0.2 70
2019-08-28 02:00:00 18.9 3 Sudeste 7 Este 0 953.8 0.3 68
2019-08-28 01:00:00 19.3 4 Sudeste 6 Este 0 954.1 1.1 65
2019-08-28 00:00:00 20.1 2 Sudeste 10 Oeste 0 954 1.6 59
2019-08-27 23:00:00 22.6 6 Oeste 10 Oeste 0 953.5 1.6 52
2019-08-27 22:00:00 24.3 5 Oeste 18 Sur 0 953 1.3 41
2019-08-27 21:00:00 26.4 5 Sudoeste 17 Sur 0 952.4 0.7 31
2019-08-27 20:00:00 28.2 4 Oeste 15 Oeste 0 951.9 0 27
2019-08-27 19:00:00 29.9 3 Oeste 17 Sudoeste 0 951.7 -0.7 26
2019-08-27 18:00:00 28.2 5 Noroeste 24 Noroeste 0 951.7 -1 27
2019-08-27 17:00:00 30.9 8 Noroeste 23 Oeste 0 951.9 -1.4 24
2019-08-27 16:00:00 28.1 8 Oeste 22 Sudoeste 0 952.4 -1.2 28
2019-08-27 15:00:00 26.9 8 Sudoeste 25 Sudoeste 0 952.7 -1.2 34
2019-08-27 14:00:00 25.1 5 Oeste 28 Sudoeste 0 953.3 -0.6 37
2019-08-27 13:00:00 26 2 Norte 13 Noroeste 0 953.6 -0.1 33
2019-08-27 12:00:00 24 5 Oeste 13 Oeste 0 953.9 0.6 44
2019-08-27 11:00:00 21.3 5 Oeste 13 Oeste 0 953.9 1.1 55
2019-08-27 10:00:00 18.7 4 Oeste 8 Oeste 0 953.7 1.7 67
2019-08-27 09:00:00 15.7 0 Calma 4 Norte 0 953.3 1.7 81
2019-08-27 08:00:00 13.6 2 Oeste 5 Oeste 0 952.8 1 83
2019-08-27 07:00:00 14.7 0 Calma 8 Oeste 0 952 0 79
2019-08-27 06:00:00 15.6 0 Calma 5 Este 0 951.6 -0.6 77
2019-08-27 05:00:00 16.8 0 Calma 4 Este 0 951.8 -0.5 73
2019-08-27 04:00:00 17.7 3 Este 4 Este 0 952 -0.5 77
2019-08-27 03:00:00 16.3 0 Calma 4 Oeste 0 952.2 -0.4 76
2019-08-27 02:00:00 17.1 2 Oeste 3 Oeste 0 952.3 -0.2 75
2019-08-27 01:00:00 18.9 0 Calma 7 Oeste 0 952.5 0.8 67
2019-08-27 00:00:00 21.3 3 Sudoeste 10 Sur 0 952.6 1.7 59
2019-08-26 23:00:00 21.5 2 Sudeste 6 Sur 0 952.5 2.6 45
2019-08-26 22:00:00 21.3 0 Calma 5 Sur 0 951.7 2.5 44
2019-08-26 21:00:00 22.4 4 Oeste 14 Noroeste 0 950.9 0.9 42
2019-08-26 20:00:00 24.4 7 Noroeste 15 Oeste 0 949.9 0.2 41
2019-08-26 19:00:00 22.9 10 Oeste 35 Noroeste 0 949.2 -0.8 42
2019-08-26 18:00:00 24 22 Noroeste 37 Oeste 0 950 -0.3 36
2019-08-26 17:00:00 27.5 7 Sudoeste 21 Sur 0 949.7 -1.1 37
2019-08-26 16:00:00 28 6 Sur 27 Oeste 0 950 -1 37
2019-08-26 15:00:00 26.6 6 Oeste 28 Oeste 0 950.3 -1.3 39
2019-08-26 14:00:00 26.2 7 Sur 20 Sur 0 950.8 -0.4 41
2019-08-26 13:00:00 25.8 9 Sudoeste 22 Sur 0 951 -0.2 43
2019-08-26 12:00:00 24.2 7 Sudoeste 17 Sur 0 951.6 0.9 48
2019-08-26 11:00:00 24.4 5 Sur 11 Sur 0 951.2 1.1 48
2019-08-26 10:00:00 22.4 3 Este 6 Este 0 951.2 1.5 54
2019-08-26 09:00:00 18.5 3 Este 5 Este 0 950.7 1.1 69
2019-08-26 08:00:00 16 4 Este 6 Este 0 950.1 0.4 75
2019-08-26 07:00:00 15.8 3 Este 6 Este 0 949.7 -0.5 75
2019-08-26 06:00:00 16.4 4 Este 10 Este 0 949.6 -1 70
2019-08-26 05:00:00 17.4 0 Calma 4 Este 0 949.7 -1.1 67
2019-08-26 04:00:00 18.2 0 Calma 5 Oeste 0 950.2 -0.3 59
2019-08-26 03:00:00 19.7 0 Calma 6 Oeste 0 950.6 0 54
2019-08-26 02:00:00 21.3 2 Oeste 10 Noroeste 0 950.8 0.7 51
2019-08-26 01:00:00 21.8 7 Oeste 16 Oeste 0 950.5 0.6 48
2019-08-26 00:00:00 23 9 Noroeste 23 Noroeste 0 950.6 1.4 47
2019-08-25 23:00:00 24.5 10 Oeste 17 Oeste 0 950.1 0.9 43
2019-08-25 22:00:00 25.8 2 Oeste 11 Oeste 0 949.9 0.5 35
2019-08-25 21:00:00 28.2 4 Sudoeste 14 Sudoeste 0 949.2 -0.4 29
2019-08-25 20:00:00 29.6 4 Sudoeste 20 Sur 0 949.2 -0.8 28
2019-08-25 19:00:00 30.8 8 Sudoeste 24 Oeste 0 949.4 -1.3 27
2019-08-25 18:00:00 31.7 6 Sudeste 27 Este 0 949.6 -1.8 25
2019-08-25 17:00:00 31.3 10 Sudeste 30 Sudoeste 0 950 -2.1 27
2019-08-25 16:00:00 31 9 Sur 26 Sur 0 950.7 -1.7 29
2019-08-25 15:00:00 30.5 9 Sur 25 Sur 0 951.4 -1.4 32
2019-08-25 14:00:00 28.9 8 Sur 24 Sudoeste 0 952.1 -0.9 35
2019-08-25 13:00:00 29 9 Sudeste 20 Sur 0 952.4 -0.9 32
2019-08-25 12:00:00 29.3 5 Sur 19 Sudeste 0 952.8 -0.4 30
2019-08-25 11:00:00 26.7 4 Sudoeste 12 Oeste 0 953 0.2 36
2019-08-25 10:00:00 23.8 4 Sudoeste 12 Sudoeste 0 953.3 0.5 42
2019-08-25 09:00:00 20.2 3 Este 5 Este 0 953.2 0.3 56
2019-08-25 08:00:00 17.4 4 Este 6 Este 0 952.8 -0.3 64
2019-08-25 07:00:00 17.3 0 Calma 4 Este 0 952.8 -0.2 63
2019-08-25 06:00:00 18.5 0 Calma 11 Sur 0 952.9 -0.2 57
2019-08-25 05:00:00 20.9 5 Sur 18 Sur 0 953.1 0.1 52
2019-08-25 04:00:00 21.4 7 Sur 20 Sur 0 953 0.1 48
2019-08-25 03:00:00 22.2 7 Sudoeste 18 Sudoeste 0 953.1 0.4 43
2019-08-25 02:00:00 22.1 5 Sur 13 Sudoeste 0 953 0.2 46
2019-08-25 01:00:00 20.5 0 Calma 4 Este 0 952.9 0.6 42
2019-08-25 00:00:00 21.7 3 Este 5 Este 0 952.7 0.7 38
2019-08-24 23:00:00 23.7 4 Este 8 Sur 0 952.8 1.2 33
2019-08-24 22:00:00 26.1 3 Sudeste 9 Sudeste 0 952.3 0.2 29
2019-08-24 21:00:00 30 2 Sur 16 Sudoeste 0 952 -0.3 25
2019-08-24 20:00:00 31.8 8 Sur 17 Noroeste 0 951.6 -1.2 23
2019-08-24 19:00:00 33.5 5 Sur 19 Sur 0 952.1 -1.1 23
2019-08-24 18:00:00 33.8 4 Sur 20 Sur 0 952.3 -1.4 23
2019-08-24 17:00:00 34.4 5 Sudeste 18 Sudoeste 0 952.8 -1.4 23
2019-08-24 16:00:00 33.5 8 Sur 18 Sur 0 953.2 -1.4 23
2019-08-24 15:00:00 32.2 7 Sur 23 Sur 0 953.7 -1.1 24
2019-08-24 14:00:00 31.4 7 Sur 21 Sur 0 954.2 -0.5 27
2019-08-24 13:00:00 30.6 6 Sur 23 Sudeste 0 954.6 0.1 28
2019-08-24 12:00:00 28.1 7 Sur 21 Sur 0 954.8 0.5 29
2019-08-24 11:00:00 27.1 9 Sudeste 20 Sur 0 954.7 0.8 30
2019-08-24 10:00:00 25.4 6 Sudeste 16 Este 0 954.5 0.8 37
2019-08-24 09:00:00 20.7 0 Calma 5 Sudeste 0 954.3 0.6 62
2019-08-24 08:00:00 18 3 Sudeste 8 Este 0 953.9 0 67
2019-08-24 07:00:00 17.7 5 Este 8 Este 0 953.7 -0.2 65
2019-08-24 06:00:00 19.2 0 Calma 9 Este 0 953.7 -0.1 58
2019-08-24 05:00:00 21.1 6 Este 10 Este 0 953.9 0.1 51
2019-08-24 04:00:00 21.8 4 Este 11 Este 0 953.9 0.3 47
2019-08-24 03:00:00 22.4 6 Este 12 Sudeste 0 953.8 0.3 42
2019-08-24 02:00:00 23.1 3 Este 12 Este 0 953.8 0.7 37
2019-08-24 01:00:00 24.1 8 Este 13 Nordeste 0 953.6 0.8 34
2019-08-24 00:00:00 23 0 Calma 8 Este 0 953.5 1.1 36
2019-08-23 23:00:00 22.8 3 Sudeste 5 Este 0 953.1 1 33
2019-08-23 22:00:00 26 3 Este 9 Sudoeste 0 952.8 0.4 28
2019-08-23 21:00:00 29.5 5 Sur 17 Sur 0 952.4 -0.1 25
2019-08-23 20:00:00 31.4 6 Sur 28 Sur 0 952.1 -0.7 23
2019-08-23 19:00:00 32.6 6 Sudeste 18 Sur 0 952.4 -0.9 23
2019-08-23 18:00:00 32.9 6 Sur 26 Sudoeste 0 952.5 -1.5 24
2019-08-23 17:00:00 32.7 10 Este 24 Sudeste 0 952.8 -1.7 23
2019-08-23 16:00:00 32.3 6 Sur 21 Este 0 953.3 -1.6 23
2019-08-23 15:00:00 31.5 9 Sudeste 27 Sudeste 0 954 -1.1 26
2019-08-23 14:00:00 30.4 11 Este 26 Sudeste 0 954.5 -0.6 26
2019-08-23 13:00:00 29.4 10 Sudeste 29 Este 0 954.9 0 29
2019-08-23 12:00:00 28.2 10 Sudeste 18 Este 0 955.1 0.7 34
2019-08-23 11:00:00 26.5 8 Sudeste 21 Sudeste 0 955.1 1 44
2019-08-23 10:00:00 24.4 9 Sudeste 17 Sudeste 0 954.9 1.2 52
2019-08-23 09:00:00 21.9 6 Este 12 Este 0 954.4 0.7 64
2019-08-23 08:00:00 19.6 4 Este 9 Sudeste 0 954.1 0.3 70
2019-08-23 07:00:00 20.4 6 Sudeste 14 Este 0 953.7 -0.1 67
2019-08-23 06:00:00 21.7 6 Sudeste 17 Este 0 953.7 -0.4 56
2019-08-23 05:00:00 22.5 7 Sudeste 27 Sudeste 0 953.8 -0.3 49
2019-08-23 04:00:00 22.8 10 Sudeste 23 Sudeste 0 953.8 -0.1 49
2019-08-23 03:00:00 22.6 4 Este 13 Sudeste 0 954.1 0.2 51
2019-08-23 02:00:00 23 6 Sudeste 12 Sudeste 0 954.1 0.3 51
2019-08-23 01:00:00 23.4 3 Sudeste 12 Sudeste 0 953.9 0.5 49
2019-08-23 00:00:00 24.5 2 Sudeste 14 Sur 0 953.9 1.1 46
2019-08-22 23:00:00 25.3 0 Calma 13 Sur 0 953.8 1.4 43
2019-08-22 22:00:00 26.8 2 Sur 12 Sudoeste 0 953.4 1 38
2019-08-22 21:00:00 29 4 Sur 15 Sur 0 952.8 0.4 33
2019-08-22 20:00:00 31.1 4 Sur 18 Sur 0 952.4 -0.4 29
2019-08-22 19:00:00 31.7 7 Sur 25 Sur 0 952.4 -0.8 28
2019-08-22 18:00:00 33.3 6 Sudeste 21 Este 0 952.4 -1.3 24
2019-08-22 17:00:00 33 6 Sudeste 27 Este 0 952.8 -1.5 26
2019-08-22 16:00:00 32.6 9 Sudeste 25 Sudeste 0 953.2 -1.7 26
2019-08-22 15:00:00 31.6 9 Sudeste 23 Sur 0 953.7 -1.3 29
2019-08-22 14:00:00 30.5 9 Sudeste 24 Sudeste 0 954.3 -0.7 36
2019-08-22 13:00:00 29.7 7 Sudeste 18 Este 0 954.9 0 39
2019-08-22 12:00:00 28.1 6 Sudeste 15 Sudeste 0 955 0.4 44
2019-08-22 11:00:00 26.1 4 Sudeste 16 Este 0 955 0.6 49
2019-08-22 10:00:00 24.4 7 Este 11 Nordeste 0 954.9 0.7 57
2019-08-22 09:00:00 20.7 0 Calma 5 Este 0 954.6 0.4 73
2019-08-22 08:00:00 18.7 2 Sudeste 7 Este 0 954.4 0 77
2019-08-22 07:00:00 19.7 3 Este 9 Sur 0 954.2 -0.1 75
2019-08-22 06:00:00 21 3 Sur 12 Sur 0 954.2 0.1 70
2019-08-22 05:00:00 21.5 4 Sur 13 Sur 0 954.4 0.4 69
2019-08-22 04:00:00 21.7 5 Sur 14 Sur 0 954.3 0.3 65
2019-08-22 03:00:00 22.8 6 Sur 12 Sur 0 954.1 0.2 58
2019-08-22 02:00:00 23 3 Sur 8 Sur 0 954 0.3 56
2019-08-22 01:00:00 22.7 5 Oeste 9 Oeste 0 954 1.1 54
2019-08-22 00:00:00 23.5 6 Oeste 10 Oeste 0 953.9 1.5 49
2019-08-21 23:00:00 25.8 6 Sudoeste 10 Sudoeste 0 953.7 1.7 43
2019-08-21 22:00:00 27.6 7 Sur 18 Sur 0 952.9 1 36
2019-08-21 21:00:00 28.5 2 Este 6 Sudeste 0 952.4 0.3 34
2019-08-21 20:00:00 31 3 Sudeste 11 Este 0 952 -0.3 32
2019-08-21 19:00:00 31 5 Nordeste 21 Este 0 951.9 -0.9 32
2019-08-21 18:00:00 31.4 4 Nordeste 15 Oeste 0 952.1 -1.3 31
2019-08-21 17:00:00 31 8 Noroeste 15 Noroeste 0 952.3 -1.4 30
2019-08-21 16:00:00 31.8 4 Sur 20 Sur 0 952.8 -1.4 32
2019-08-21 15:00:00 31.6 4 Este 21 Sur 0 953.4 -1.2 33
2019-08-21 14:00:00 30.5 7 Este 21 Sur 0 953.7 -0.9 33
2019-08-21 13:00:00 28.9 6 Sur 19 Sur 0 954.2 0 39
2019-08-21 12:00:00 27.3 6 Sur 16 Sudoeste 0 954.6 0.4 42
2019-08-21 11:00:00 26.1 5 Sur 11 Sur 0 954.6 0.7 42
2019-08-21 10:00:00 25.4 2 Nordeste 6 Este 0 954.2 0.5 35
2019-08-21 09:00:00 20.6 2 Sudeste 8 Este 0 954.2 0.7 40
2019-08-21 08:00:00 16.1 4 Este 6 Este 0 953.9 0.6 38
2019-08-21 07:00:00 16.2 4 Este 6 Este 0 953.7 0.5 35
2019-08-21 06:00:00 17.7 4 Sudeste 13 Sudeste 0 953.5 0 34
2019-08-21 05:00:00 19 3 Sudeste 17 Sur 0 953.3 0.3 37
2019-08-21 04:00:00 18.6 4 Sur 10 Sur 0 953.2 0.2 41
2019-08-21 03:00:00 17 2 Este 5 Este 0 953.5 0.5 43
2019-08-21 02:00:00 17.5 3 Sudeste 5 Sudeste 0 953 0 42
2019-08-21 01:00:00 17.7 2 Sudeste 5 Sudeste 0 953 0.6 41
2019-08-21 00:00:00 18.3 3 Este 4 Este 0 953 1.1 37